createdAt,value
2022-09-17T00:02:08.517Z,10.25
2022-09-17T00:04:34.993Z,6.32
2022-09-17T00:07:01.411Z,10.98
2022-09-17T00:09:28.175Z,8.38
2022-09-17T00:11:54.711Z,9.43
2022-09-17T00:14:21.120Z,9.90
2022-09-17T00:16:49.290Z,8.40
2022-09-17T00:19:20.046Z,7.47
2022-09-17T00:21:46.552Z,10.07
2022-09-17T00:24:14.338Z,9.55
2022-09-17T00:26:41.125Z,11.50
2022-09-17T00:29:07.814Z,12.23
2022-09-17T00:31:35.226Z,10.05
2022-09-17T00:34:03.201Z,10.35
2022-09-17T00:36:29.960Z,8.98
2022-09-17T00:38:59.150Z,12.23
2022-09-17T00:41:28.986Z,8.05
2022-09-17T00:43:58.101Z,11.75
2022-09-17T00:46:43.551Z,9.75
2022-09-17T00:49:18.757Z,13.82
2022-09-17T00:52:10.579Z,7.03
2022-09-17T00:54:39.764Z,12.40
2022-09-17T00:57:06.687Z,13.70
2022-09-17T00:59:33.547Z,9.90
2022-09-17T01:02:00.007Z,9.60
2022-09-17T01:04:27.858Z,11.43
2022-09-17T01:07:15.149Z,9.10
2022-09-17T01:09:56.546Z,12.57
2022-09-17T01:12:56.966Z,9.52
2022-09-17T01:15:45.485Z,13.48
2022-09-17T01:18:30.859Z,8.35
2022-09-17T01:21:16.106Z,9.32
2022-09-17T01:24:05.387Z,11.77
2022-09-17T01:26:41.088Z,11.30
2022-09-17T01:29:45.458Z,12.13
2022-09-17T01:32:25.744Z,9.48
2022-09-17T01:35:17.595Z,11.88
2022-09-17T01:38:05.323Z,10.85
2022-09-17T01:40:50.933Z,12.98
2022-09-17T01:43:37.147Z,9.27
2022-09-17T01:46:12.226Z,11.15
2022-09-17T01:48:44.484Z,9.27
2022-09-17T01:51:17.167Z,7.38
2022-09-17T01:54:21.549Z,11.23
2022-09-17T01:56:56.341Z,10.55
2022-09-17T01:59:31.677Z,9.98
2022-09-17T02:02:07.411Z,14.68
2022-09-17T02:04:43.246Z,15.05
2022-09-17T02:07:16.878Z,20.55
2022-09-17T02:09:51.155Z,10.90
2022-09-17T02:12:24.236Z,11.73
2022-09-17T02:14:54.095Z,13.63
2022-09-17T02:17:34.531Z,11.57
2022-09-17T02:20:01.448Z,9.98
2022-09-17T02:22:46.875Z,12.15
2022-09-17T02:25:36.526Z,12.90
2022-09-17T02:28:20.078Z,12.23
2022-09-17T02:30:46.653Z,12.48
2022-09-17T02:33:15.158Z,20.92
2022-09-17T02:35:43.513Z,10.63
2022-09-17T02:38:10.629Z,10.30
2022-09-17T02:40:49.375Z,12.60
2022-09-17T02:43:38.093Z,14.98
2022-09-17T02:46:19.250Z,13.30
2022-09-17T02:49:01.336Z,13.93
2022-09-17T02:51:45.699Z,12.73
2022-09-17T02:54:24.471Z,11.15
2022-09-17T02:57:25.868Z,12.85
2022-09-17T03:00:04.799Z,11.55
2022-09-17T03:02:48.527Z,12.82
2022-09-17T03:05:18.670Z,7.75
2022-09-17T03:07:45.364Z,11.40
2022-09-17T03:10:14.036Z,12.60
2022-09-17T03:12:41.067Z,15.05
2022-09-17T03:15:08.427Z,13.00
2022-09-17T03:17:34.908Z,13.48
2022-09-17T03:20:01.404Z,13.82
2022-09-17T03:22:27.838Z,15.23
2022-09-17T03:24:58.805Z,9.23
2022-09-17T03:27:25.258Z,12.98
2022-09-17T03:29:51.680Z,13.55
2022-09-17T03:32:18.071Z,10.35
2022-09-17T03:34:44.776Z,15.57
2022-09-17T03:37:11.207Z,10.02
2022-09-17T03:39:37.615Z,9.70
2022-09-17T03:42:04.413Z,12.00
2022-09-17T03:44:30.824Z,12.70
2022-09-17T03:46:57.338Z,17.30
2022-09-17T03:49:26.814Z,12.05
2022-09-17T03:51:53.370Z,16.08
2022-09-17T03:54:19.873Z,11.70
2022-09-17T03:56:46.287Z,12.82
2022-09-17T03:59:12.777Z,10.85
2022-09-17T04:01:39.812Z,11.95
2022-09-17T04:04:06.706Z,10.32
2022-09-17T04:06:33.348Z,16.70
2022-09-17T04:09:01.031Z,12.93
2022-09-17T04:11:27.548Z,18.85
2022-09-17T04:13:54.025Z,10.98
2022-09-17T04:16:20.594Z,8.73
2022-09-17T04:18:47.529Z,8.07
2022-09-17T04:21:13.979Z,11.93
2022-09-17T04:23:40.781Z,7.90
2022-09-17T04:26:07.219Z,9.75
2022-09-17T04:28:33.634Z,13.27
2022-09-17T04:31:00.277Z,7.88
2022-09-17T04:33:26.841Z,7.45
2022-09-17T04:35:54.201Z,10.75
2022-09-17T04:38:22.129Z,14.85
2022-09-17T04:40:48.777Z,9.75
2022-09-17T04:43:15.257Z,13.88
2022-09-17T04:45:41.750Z,13.02
2022-09-17T04:48:08.243Z,15.88
2022-09-17T04:50:34.743Z,8.05
2022-09-17T04:53:01.194Z,9.65
2022-09-17T04:55:27.856Z,10.95
2022-09-17T04:57:56.269Z,12.38
2022-09-17T05:00:23.588Z,14.07
2022-09-17T05:02:52.298Z,9.98
2022-09-17T05:05:18.981Z,10.55
2022-09-17T05:07:45.888Z,12.90
2022-09-17T05:10:14.179Z,13.07
2022-09-17T05:12:40.652Z,7.15
2022-09-17T05:15:07.784Z,13.57
2022-09-17T05:17:34.289Z,10.40
2022-09-17T05:20:00.779Z,13.20
2022-09-17T05:22:27.204Z,11.30
2022-09-17T05:24:53.676Z,10.25
2022-09-17T05:27:20.185Z,12.50
2022-09-17T05:29:46.786Z,7.72
2022-09-17T05:32:13.449Z,10.77
2022-09-17T05:34:40.689Z,7.97
2022-09-17T05:37:10.716Z,8.68
2022-09-17T05:39:37.273Z,10.70
2022-09-17T05:42:03.920Z,9.95
2022-09-17T05:44:30.461Z,11.75
2022-09-17T05:46:56.965Z,7.78
2022-09-17T05:49:23.458Z,8.57
2022-09-17T05:51:51.367Z,13.07
2022-09-17T05:54:18.108Z,12.32
2022-09-17T05:56:44.570Z,12.48
2022-09-17T05:59:11.112Z,11.88
2022-09-17T06:01:37.830Z,12.68
2022-09-17T06:04:04.863Z,13.65
2022-09-17T06:06:31.543Z,8.65
2022-09-17T06:09:01.663Z,9.43
2022-09-17T06:11:28.616Z,8.77
2022-09-17T06:13:56.040Z,9.25
2022-09-17T06:16:23.978Z,9.25
2022-09-17T06:18:53.208Z,10.88
2022-09-17T06:21:21.815Z,8.40
2022-09-17T06:23:49.698Z,8.23
2022-09-17T06:26:16.798Z,10.88
2022-09-17T06:42:08.299Z,8.40
2022-09-17T06:44:34.713Z,9.55
2022-09-17T06:47:01.215Z,9.00
2022-09-17T06:49:28.838Z,10.27
2022-09-17T06:51:55.222Z,11.48
2022-09-17T06:54:21.633Z,8.95
2022-09-17T06:56:48.089Z,10.10
2022-09-17T06:59:14.693Z,11.57
2022-09-17T07:01:41.153Z,10.10
2022-09-17T07:04:07.551Z,7.50
2022-09-17T07:06:34.014Z,8.35
2022-09-17T07:09:00.646Z,6.97
2022-09-17T07:11:27.139Z,11.40
2022-09-17T07:13:53.662Z,9.45
2022-09-17T07:16:20.804Z,10.52
2022-09-17T07:18:47.264Z,8.48
2022-09-17T07:21:13.714Z,6.22
2022-09-17T07:23:40.167Z,9.00
2022-09-17T07:26:12.140Z,13.43
2022-09-17T07:28:39.970Z,8.23
2022-09-17T07:31:08.121Z,12.55
2022-09-17T07:33:37.622Z,9.07
2022-09-17T07:36:07.384Z,8.95
2022-09-17T07:38:34.846Z,7.13
2022-09-17T07:41:03.966Z,13.10
2022-09-17T07:43:33.019Z,6.97
2022-09-17T07:46:01.090Z,10.68
2022-09-17T07:48:28.392Z,6.90
2022-09-17T07:50:55.197Z,10.85
2022-09-17T07:53:25.025Z,7.45
2022-09-17T07:55:58.652Z,6.40
2022-09-17T07:58:33.650Z,12.27
2022-09-17T08:01:08.589Z,9.17
2022-09-17T08:03:36.250Z,9.32
2022-09-17T08:06:13.834Z,7.45
2022-09-17T08:08:41.302Z,7.90
2022-09-17T08:11:11.205Z,7.88
2022-09-17T08:13:37.945Z,6.78
2022-09-17T08:16:13.362Z,5.43
2022-09-17T08:18:40.473Z,5.03
2022-09-17T08:21:09.187Z,5.15
2022-09-17T08:23:37.873Z,4.70
2022-09-17T08:26:07.157Z,5.30
2022-09-17T08:28:33.536Z,6.60
2022-09-17T08:31:01.949Z,6.18
2022-09-17T08:33:32.502Z,8.50
2022-09-17T08:35:59.657Z,7.10
2022-09-17T08:38:27.727Z,4.68
2022-09-17T08:41:20.983Z,3.78
2022-09-17T08:44:06.475Z,8.43
2022-09-17T08:46:40.722Z,6.20
2022-09-17T08:49:16.310Z,7.57
2022-09-17T08:52:23.943Z,3.40
2022-09-17T08:55:00.372Z,6.43
2022-09-17T08:57:55.989Z,7.55
2022-09-17T09:00:24.005Z,5.90
2022-09-17T09:03:24.033Z,6.70
2022-09-17T09:05:52.591Z,3.22
2022-09-17T09:08:37.153Z,4.65
2022-09-17T09:11:07.545Z,7.15
2022-09-17T09:13:43.002Z,3.65
2022-09-17T09:16:24.146Z,6.75
2022-09-17T09:18:54.618Z,5.70
2022-09-17T09:21:20.916Z,4.78
2022-09-17T09:23:58.661Z,3.97
2022-09-17T09:26:40.234Z,5.25
2022-09-17T09:29:29.031Z,5.22
2022-09-17T09:32:16.636Z,9.00
2022-09-17T09:34:45.093Z,11.05
2022-09-17T09:37:17.653Z,18.13
2022-09-17T09:39:46.850Z,25.88
2022-09-17T09:42:27.151Z,53.80
2022-09-17T09:44:53.806Z,32.47
2022-09-17T09:47:35.389Z,20.30
2022-09-17T09:50:25.299Z,27.10
2022-09-17T09:52:59.655Z,16.15
2022-09-17T09:55:41.257Z,13.55
2022-09-17T09:58:16.772Z,7.78
2022-09-17T10:00:43.767Z,7.85
2022-09-17T10:03:19.573Z,5.93
2022-09-17T10:05:58.877Z,4.82
2022-09-17T10:08:26.454Z,6.47
2022-09-17T10:11:26.375Z,10.50
2022-09-17T10:13:52.915Z,5.63
2022-09-17T10:16:20.791Z,3.95
2022-09-17T10:19:05.788Z,4.65
2022-09-17T10:21:41.037Z,9.20
2022-09-17T10:24:23.891Z,5.45
2022-09-17T10:26:51.702Z,4.93
2022-09-17T10:29:20.826Z,5.00
2022-09-17T10:31:48.772Z,5.13
2022-09-17T10:34:26.042Z,2.83
2022-09-17T10:36:53.191Z,3.38
2022-09-17T10:39:44.352Z,4.28
2022-09-17T10:42:13.485Z,3.30
2022-09-17T10:44:54.646Z,3.03
2022-09-17T10:47:25.517Z,2.78
2022-09-17T10:50:00.215Z,2.10
2022-09-17T10:52:40.261Z,4.40
2022-09-17T10:55:28.391Z,4.00
2022-09-17T10:58:07.372Z,2.25
2022-09-17T11:01:10.415Z,6.20
2022-09-17T11:04:28.503Z,2.78
2022-09-17T11:07:25.138Z,4.00
2022-09-17T11:10:07.090Z,2.50
2022-09-17T11:12:55.594Z,7.97
2022-09-17T11:15:31.176Z,3.38
2022-09-17T11:18:03.126Z,3.00
2022-09-17T11:20:51.436Z,3.20
2022-09-17T11:23:31.949Z,3.70
2022-09-17T11:26:19.229Z,3.60
2022-09-17T11:28:52.553Z,4.72
2022-09-17T11:31:54.485Z,4.10
2022-09-17T11:34:28.795Z,5.38
2022-09-17T11:37:19.870Z,3.75
2022-09-17T11:40:12.326Z,2.78
2022-09-17T11:42:48.094Z,3.70
2022-09-17T11:45:20.951Z,4.40
2022-09-17T11:47:54.894Z,6.55
2022-09-17T11:50:45.393Z,8.75
2022-09-17T11:53:25.405Z,3.00
2022-09-17T11:56:09.651Z,4.93
2022-09-17T11:58:46.329Z,3.42
2022-09-17T12:01:24.773Z,3.40
2022-09-17T12:03:57.829Z,5.50
2022-09-17T12:06:51.308Z,3.75
2022-09-17T12:09:23.163Z,3.80
2022-09-17T12:12:03.856Z,4.80
2022-09-17T12:14:35.305Z,4.95
2022-09-17T12:17:04.423Z,1.45
2022-09-17T12:19:42.443Z,3.85
2022-09-17T12:22:17.611Z,6.30
2022-09-17T12:24:44.290Z,3.45
2022-09-17T12:27:17.455Z,3.25
2022-09-17T12:30:00.400Z,2.40
2022-09-17T12:32:29.900Z,1.63
2022-09-17T12:35:14.656Z,4.65
2022-09-17T12:37:55.119Z,2.70
2022-09-17T12:40:46.093Z,3.20
2022-09-17T12:43:50.395Z,3.20
2022-09-17T12:46:22.659Z,1.77
2022-09-17T12:49:19.062Z,2.50
2022-09-17T12:51:58.647Z,4.82
2022-09-17T12:54:45.536Z,4.78
2022-09-17T12:57:18.103Z,5.25
2022-09-17T13:00:03.980Z,4.25
2022-09-17T13:02:42.217Z,3.08
2022-09-17T13:05:54.992Z,4.28
2022-09-17T13:08:49.761Z,2.90
2022-09-17T13:11:31.485Z,4.75
2022-09-17T13:14:29.682Z,5.55
2022-09-17T13:17:23.631Z,6.30
2022-09-17T13:20:16.025Z,5.65
2022-09-17T13:22:48.301Z,8.75
2022-09-17T13:25:17.951Z,4.75
2022-09-17T13:27:45.776Z,6.55
2022-09-17T13:30:15.534Z,5.40
2022-09-17T13:32:46.952Z,6.43
2022-09-17T13:35:13.319Z,7.50
2022-09-17T13:37:48.885Z,5.90
2022-09-17T13:40:25.396Z,6.15
2022-09-17T13:42:55.644Z,6.28
2022-09-17T13:45:23.669Z,3.38
2022-09-17T13:47:59.421Z,6.25
2022-09-17T13:50:39.165Z,7.47
2022-09-17T13:53:05.473Z,9.35
2022-09-17T13:55:36.238Z,6.13
2022-09-17T13:58:22.090Z,5.53
2022-09-17T14:00:51.510Z,5.22
2022-09-17T14:03:51.180Z,6.20
2022-09-17T14:06:18.813Z,5.80
2022-09-17T14:08:45.383Z,8.20
2022-09-17T14:11:24.022Z,4.95
2022-09-17T14:13:52.298Z,5.90
2022-09-17T14:16:37.400Z,5.18
2022-09-17T14:19:16.286Z,4.45
2022-09-17T14:21:46.396Z,5.60
2022-09-17T14:24:30.478Z,5.68
2022-09-17T14:27:09.101Z,7.85
2022-09-17T14:29:47.035Z,6.32
2022-09-17T14:32:20.843Z,4.65
2022-09-17T14:34:49.074Z,6.68
2022-09-17T14:37:20.405Z,6.22
2022-09-17T14:39:48.814Z,6.13
2022-09-17T14:42:21.738Z,8.07
2022-09-17T14:44:59.235Z,8.20
2022-09-17T14:47:27.050Z,9.50
2022-09-17T14:49:54.524Z,7.05
2022-09-17T14:52:30.449Z,4.78
2022-09-17T14:57:41.822Z,14.38
2022-09-17T15:00:18.334Z,5.22
2022-09-17T15:02:45.150Z,5.10
2022-09-17T15:05:34.244Z,4.95
2022-09-17T15:08:09.967Z,6.30
2022-09-17T15:10:46.133Z,4.25
2022-09-17T15:13:16.471Z,7.15
2022-09-17T15:16:00.784Z,4.70
2022-09-17T15:18:44.265Z,5.80
2022-09-17T15:21:24.292Z,3.78
2022-09-17T15:23:54.215Z,2.55
2022-09-17T15:26:24.762Z,3.38
2022-09-17T15:28:54.308Z,2.45
2022-09-17T15:31:20.837Z,2.50
2022-09-17T15:33:47.719Z,3.17
2022-09-17T15:36:22.082Z,3.78
2022-09-17T15:38:49.510Z,3.55
2022-09-17T15:41:20.865Z,4.25
2022-09-17T15:43:49.348Z,3.85
2022-09-17T15:46:31.197Z,4.32
2022-09-17T15:49:02.067Z,6.70
2022-09-17T15:51:31.456Z,7.22
2022-09-17T15:54:07.115Z,2.42
2022-09-17T15:56:36.976Z,3.38
2022-09-17T15:59:27.940Z,3.80
2022-09-17T16:01:57.158Z,5.90
2022-09-17T16:04:32.090Z,5.85
2022-09-17T16:07:01.461Z,7.70
2022-09-17T16:09:49.808Z,3.38
2022-09-17T16:12:24.986Z,7.45
2022-09-17T16:14:53.642Z,5.70
2022-09-17T16:17:24.771Z,10.20
2022-09-17T16:19:51.623Z,7.05
2022-09-17T16:22:18.057Z,5.10
2022-09-17T16:24:44.451Z,7.97
2022-09-17T16:27:18.167Z,8.35
2022-09-17T16:29:44.678Z,9.38
2022-09-17T16:32:11.354Z,12.23
2022-09-17T16:34:37.875Z,6.65
2022-09-17T16:37:04.355Z,7.50
2022-09-17T16:39:30.737Z,6.35
2022-09-17T16:41:57.130Z,5.78
2022-09-17T16:44:23.531Z,6.75
2022-09-17T16:46:50.039Z,4.75
2022-09-17T16:49:16.625Z,8.15
2022-09-17T16:51:43.044Z,11.70
2022-09-17T16:54:09.516Z,6.75
2022-09-17T16:56:36.074Z,4.50
2022-09-17T16:59:02.486Z,10.82
2022-09-17T17:01:28.877Z,4.53
2022-09-17T17:03:56.027Z,4.55
2022-09-17T17:06:22.647Z,5.70
2022-09-17T17:08:49.428Z,4.72
2022-09-17T17:11:15.841Z,3.97
2022-09-17T17:13:43.147Z,4.97
2022-09-17T17:16:11.961Z,4.57
2022-09-17T17:18:38.977Z,4.43
2022-09-17T17:21:10.093Z,4.95
2022-09-17T17:23:36.667Z,4.35
2022-09-17T17:26:03.870Z,5.65
2022-09-17T17:28:35.059Z,5.45
2022-09-17T17:31:02.968Z,4.55
2022-09-17T17:33:29.579Z,4.25
2022-09-17T17:36:02.867Z,6.28
2022-09-17T17:38:33.322Z,4.60
2022-09-17T17:41:11.493Z,7.35
2022-09-17T17:43:38.392Z,4.75
2022-09-17T17:46:09.610Z,6.28
2022-09-17T17:48:36.433Z,4.90
2022-09-17T17:51:05.005Z,4.97
2022-09-17T17:53:31.990Z,4.65
2022-09-17T17:56:04.174Z,4.15
2022-09-17T17:58:30.569Z,3.00
2022-09-17T18:00:57.545Z,6.18
2022-09-17T18:03:27.046Z,3.60
2022-09-17T18:05:56.610Z,4.35
2022-09-17T18:08:26.389Z,4.00
2022-09-17T18:10:57.663Z,2.55
2022-09-17T18:13:24.382Z,4.55
2022-09-17T18:15:55.996Z,7.72
2022-09-17T18:18:23.910Z,4.15
2022-09-17T18:20:51.778Z,6.28
2022-09-17T18:23:18.174Z,3.00
2022-09-17T18:25:58.389Z,2.10
2022-09-17T18:28:26.660Z,3.17
2022-09-17T18:30:53.187Z,5.45
2022-09-17T18:33:28.541Z,4.10
2022-09-17T18:36:01.658Z,6.72
2022-09-17T18:38:28.787Z,5.32
2022-09-17T18:40:55.237Z,3.80
2022-09-17T18:43:21.626Z,3.42
2022-09-17T18:45:55.744Z,6.47
2022-09-17T18:48:23.240Z,3.75
2022-09-17T18:51:00.657Z,5.28
2022-09-17T18:53:28.838Z,4.68
2022-09-17T18:55:59.467Z,4.88
2022-09-17T18:58:25.914Z,6.60
2022-09-17T19:00:52.472Z,6.20
2022-09-17T19:03:19.048Z,4.95
2022-09-17T19:05:45.438Z,7.78
2022-09-17T19:08:12.930Z,6.25
2022-09-17T19:10:39.740Z,5.85
2022-09-17T19:13:06.131Z,5.43
2022-09-17T19:15:33.276Z,6.55
2022-09-17T19:17:59.747Z,5.72
2022-09-17T19:20:26.165Z,7.43
2022-09-17T19:22:52.746Z,5.55
2022-09-17T19:25:23.205Z,6.93
2022-09-17T19:27:49.686Z,6.75
2022-09-17T19:30:16.106Z,6.97
2022-09-17T19:32:45.783Z,5.75
2022-09-17T19:35:12.347Z,5.22
2022-09-17T19:37:38.745Z,6.97
2022-09-17T19:40:06.732Z,5.65
2022-09-17T19:42:33.196Z,4.95
2022-09-17T19:44:59.647Z,7.60
2022-09-17T19:47:26.071Z,10.57
2022-09-17T19:49:52.542Z,5.82
2022-09-17T19:52:19.885Z,4.93
2022-09-17T19:54:46.694Z,4.25
2022-09-17T19:57:13.281Z,8.27
2022-09-17T19:59:40.289Z,5.75
2022-09-17T20:02:06.834Z,11.52
2022-09-17T20:04:33.283Z,10.68
2022-09-17T20:07:01.725Z,7.50
2022-09-17T20:09:28.127Z,9.95
2022-09-17T20:11:55.429Z,10.68
2022-09-17T20:14:22.429Z,7.07
2022-09-17T20:16:48.894Z,8.48
2022-09-17T20:19:16.530Z,11.90
2022-09-17T20:21:43.054Z,10.05
2022-09-17T20:24:09.473Z,8.73
2022-09-17T20:26:35.998Z,9.68
2022-09-17T20:29:03.079Z,8.65
2022-09-17T20:31:31.049Z,7.35
2022-09-17T20:34:00.181Z,9.20
2022-09-17T20:36:33.309Z,10.18
2022-09-17T20:39:12.296Z,6.45
2022-09-17T20:41:40.609Z,12.27
2022-09-17T20:44:07.795Z,7.93
2022-09-17T20:46:34.326Z,9.32
2022-09-17T20:49:00.809Z,7.28
2022-09-17T20:51:29.436Z,6.57
2022-09-17T20:54:01.536Z,11.75
2022-09-17T20:56:31.314Z,6.65
2022-09-17T20:59:14.281Z,7.95
2022-09-17T21:01:44.681Z,12.85
2022-09-17T21:04:15.741Z,10.38
2022-09-17T21:06:43.440Z,6.28
2022-09-17T21:09:12.262Z,6.07
2022-09-17T21:11:38.996Z,6.20
2022-09-17T21:14:05.691Z,9.70
2022-09-17T21:16:32.282Z,6.00
2022-09-17T21:19:01.503Z,8.32
2022-09-17T21:21:31.084Z,8.88
2022-09-17T21:24:02.297Z,8.93
2022-09-17T21:26:29.071Z,6.55
2022-09-17T21:28:56.494Z,5.53
2022-09-17T21:31:29.657Z,3.60
2022-09-17T21:34:00.953Z,2.60
2022-09-17T21:36:30.266Z,8.23
2022-09-17T21:38:59.123Z,10.70
2022-09-17T21:41:26.357Z,10.45
2022-09-17T21:43:52.836Z,6.80
2022-09-17T21:46:22.720Z,7.65
2022-09-17T21:48:54.074Z,8.23
2022-09-17T21:51:29.126Z,4.38
2022-09-17T21:53:57.152Z,6.57
2022-09-17T21:56:24.159Z,7.50
2022-09-17T21:58:53.076Z,6.82
2022-09-17T22:01:22.780Z,4.90
2022-09-17T22:03:49.803Z,5.38
2022-09-17T22:06:25.126Z,7.05
2022-09-17T22:08:52.934Z,7.18
2022-09-17T22:11:22.329Z,9.43
2022-09-17T22:14:23.460Z,8.20
2022-09-17T22:16:55.474Z,8.57
2022-09-17T22:19:23.512Z,7.95
2022-09-17T22:21:52.554Z,6.70
2022-09-17T22:24:20.913Z,10.60
2022-09-17T22:26:55.786Z,5.47
2022-09-17T22:29:24.739Z,6.97
2022-09-17T22:31:51.263Z,9.02
2022-09-17T22:34:20.659Z,6.90
2022-09-17T22:36:48.139Z,7.35
2022-09-17T22:39:15.307Z,10.07
2022-09-17T22:41:45.196Z,5.25
2022-09-17T22:44:15.628Z,9.13
2022-09-17T22:46:42.656Z,8.38
2022-09-17T22:49:10.833Z,8.10
2022-09-17T22:51:38.095Z,6.65
2022-09-17T22:54:05.655Z,5.78
2022-09-17T22:56:33.846Z,7.38
2022-09-17T22:59:00.247Z,8.52
2022-09-17T23:01:33.059Z,11.65
2022-09-17T23:04:01.034Z,5.82
2022-09-17T23:06:29.941Z,8.55
2022-09-17T23:08:56.865Z,9.55
2022-09-17T23:11:33.806Z,12.27
2022-09-17T23:14:02.878Z,7.60
2022-09-17T23:16:41.446Z,9.63
2022-09-17T23:19:08.698Z,8.95
2022-09-17T23:21:35.232Z,7.47
2022-09-17T23:24:03.162Z,9.48
2022-09-17T23:26:29.707Z,8.00
2022-09-17T23:28:57.415Z,4.97
2022-09-17T23:31:27.887Z,6.40
2022-09-17T23:33:55.799Z,4.60
2022-09-17T23:36:24.590Z,5.47
2022-09-17T23:38:51.568Z,4.80
2022-09-17T23:41:30.506Z,7.80
2022-09-17T23:43:59.057Z,4.47
2022-09-17T23:46:27.109Z,6.85
2022-09-17T23:48:54.034Z,4.97
2022-09-17T23:51:22.001Z,6.03
2022-09-17T23:53:48.683Z,8.40
2022-09-17T23:56:18.766Z,8.13
2022-09-17T23:58:45.577Z,6.82
